sensor_id;sensor_type;location;lat;lon;timestamp;P1;durP1;ratioP1;P2;durP2;ratioP2
29568;SDS011;16501;51.462;14.346;2022-12-07T00:00:40;4.13;;;2.58;;
29568;SDS011;16501;51.462;14.346;2022-12-07T00:03:05;4.85;;;2.92;;
29568;SDS011;16501;51.462;14.346;2022-12-07T00:05:30;4.72;;;3.25;;
29568;SDS011;16501;51.462;14.346;2022-12-07T00:07:56;3.95;;;2.47;;
29568;SDS011;16501;51.462;14.346;2022-12-07T00:10:21;7.45;;;3.10;;
29568;SDS011;16501;51.462;14.346;2022-12-07T00:12:47;5.28;;;3.13;;
29568;SDS011;16501;51.462;14.346;2022-12-07T00:15:13;5.93;;;3.13;;
29568;SDS011;16501;51.462;14.346;2022-12-07T00:17:38;8.25;;;3.65;;
29568;SDS011;16501;51.462;14.346;2022-12-07T00:20:03;8.02;;;3.72;;
29568;SDS011;16501;51.462;14.346;2022-12-07T00:22:29;9.70;;;4.55;;
29568;SDS011;16501;51.462;14.346;2022-12-07T00:24:55;6.63;;;3.97;;
29568;SDS011;16501;51.462;14.346;2022-12-07T00:27:20;7.25;;;4.38;;
29568;SDS011;16501;51.462;14.346;2022-12-07T00:29:45;8.90;;;4.70;;
29568;SDS011;16501;51.462;14.346;2022-12-07T00:32:11;9.80;;;4.70;;
29568;SDS011;16501;51.462;14.346;2022-12-07T00:34:37;9.63;;;4.88;;
29568;SDS011;16501;51.462;14.346;2022-12-07T00:37:02;12.55;;;5.70;;
29568;SDS011;16501;51.462;14.346;2022-12-07T00:39:29;12.43;;;5.75;;
29568;SDS011;16501;51.462;14.346;2022-12-07T00:41:55;11.25;;;6.15;;
29568;SDS011;16501;51.462;14.346;2022-12-07T00:44:21;11.93;;;6.63;;
29568;SDS011;16501;51.462;14.346;2022-12-07T00:46:46;13.57;;;6.63;;
29568;SDS011;16501;51.462;14.346;2022-12-07T00:49:12;11.43;;;6.95;;
29568;SDS011;16501;51.462;14.346;2022-12-07T00:51:38;16.63;;;7.93;;
29568;SDS011;16501;51.462;14.346;2022-12-07T00:54:04;11.93;;;6.25;;
29568;SDS011;16501;51.462;14.346;2022-12-07T00:56:30;12.30;;;6.30;;
29568;SDS011;16501;51.462;14.346;2022-12-07T00:58:56;11.32;;;6.18;;
29568;SDS011;16501;51.462;14.346;2022-12-07T01:01:25;13.48;;;6.68;;
29568;SDS011;16501;51.462;14.346;2022-12-07T01:03:53;14.40;;;6.45;;
29568;SDS011;16501;51.462;14.346;2022-12-07T01:06:20;14.45;;;7.10;;
29568;SDS011;16501;51.462;14.346;2022-12-07T01:08:47;16.75;;;7.43;;
29568;SDS011;16501;51.462;14.346;2022-12-07T01:11:15;13.50;;;6.85;;
29568;SDS011;16501;51.462;14.346;2022-12-07T01:13:43;12.75;;;6.65;;
29568;SDS011;16501;51.462;14.346;2022-12-07T01:16:10;12.85;;;7.13;;
29568;SDS011;16501;51.462;14.346;2022-12-07T01:18:38;10.20;;;5.88;;
29568;SDS011;16501;51.462;14.346;2022-12-07T01:21:14;14.75;;;6.40;;
29568;SDS011;16501;51.462;14.346;2022-12-07T01:23:43;13.65;;;6.38;;
29568;SDS011;16501;51.462;14.346;2022-12-07T01:26:12;12.93;;;7.35;;
29568;SDS011;16501;51.462;14.346;2022-12-07T01:28:40;14.13;;;6.53;;
29568;SDS011;16501;51.462;14.346;2022-12-07T01:31:06;12.82;;;6.85;;
29568;SDS011;16501;51.462;14.346;2022-12-07T01:33:35;11.75;;;6.53;;
29568;SDS011;16501;51.462;14.346;2022-12-07T01:36:08;11.55;;;7.07;;
29568;SDS011;16501;51.462;14.346;2022-12-07T01:38:38;14.45;;;6.93;;
29568;SDS011;16501;51.462;14.346;2022-12-07T01:41:04;12.35;;;6.45;;
29568;SDS011;16501;51.462;14.346;2022-12-07T01:43:30;18.45;;;7.18;;
29568;SDS011;16501;51.462;14.346;2022-12-07T01:45:59;16.30;;;7.85;;
29568;SDS011;16501;51.462;14.346;2022-12-07T01:48:27;13.10;;;7.13;;
29568;SDS011;16501;51.462;14.346;2022-12-07T01:50:53;13.63;;;7.32;;
29568;SDS011;16501;51.462;14.346;2022-12-07T01:53:22;16.75;;;7.95;;
29568;SDS011;16501;51.462;14.346;2022-12-07T01:55:52;13.07;;;7.03;;
29568;SDS011;16501;51.462;14.346;2022-12-07T01:58:19;12.82;;;7.03;;
29568;SDS011;16501;51.462;14.346;2022-12-07T02:00:45;14.02;;;7.82;;
29568;SDS011;16501;51.462;14.346;2022-12-07T02:03:37;12.73;;;6.95;;
29568;SDS011;16501;51.462;14.346;2022-12-07T02:06:05;13.55;;;7.03;;
29568;SDS011;16501;51.462;14.346;2022-12-07T02:08:32;14.45;;;7.72;;
29568;SDS011;16501;51.462;14.346;2022-12-07T02:10:58;12.52;;;7.43;;
29568;SDS011;16501;51.462;14.346;2022-12-07T02:13:28;13.40;;;7.70;;
29568;SDS011;16501;51.462;14.346;2022-12-07T02:16:04;14.07;;;7.65;;
29568;SDS011;16501;51.462;14.346;2022-12-07T02:32:27;16.70;;;8.63;;
29568;SDS011;16501;51.462;14.346;2022-12-07T02:35:19;17.70;;;8.05;;
29568;SDS011;16501;51.462;14.346;2022-12-07T02:41:00;16.45;;;8.63;;
29568;SDS011;16501;51.462;14.346;2022-12-07T02:43:35;16.67;;;8.82;;
29568;SDS011;16501;51.462;14.346;2022-12-07T02:46:09;17.15;;;9.07;;
29568;SDS011;16501;51.462;14.346;2022-12-07T02:48:41;18.42;;;9.25;;
29568;SDS011;16501;51.462;14.346;2022-12-07T02:51:09;18.05;;;10.18;;
29568;SDS011;16501;51.462;14.346;2022-12-07T02:53:36;14.82;;;8.07;;
29568;SDS011;16501;51.462;14.346;2022-12-07T03:01:14;14.25;;;8.02;;
29568;SDS011;16501;51.462;14.346;2022-12-07T03:10:16;13.93;;;7.75;;
29568;SDS011;16501;51.462;14.346;2022-12-07T03:13:07;16.20;;;7.70;;
29568;SDS011;16501;51.462;14.346;2022-12-07T03:19:01;15.15;;;7.50;;
29568;SDS011;16501;51.462;14.346;2022-12-07T03:21:28;13.43;;;7.40;;
29568;SDS011;16501;51.462;14.346;2022-12-07T03:23:58;12.35;;;6.40;;
29568;SDS011;16501;51.462;14.346;2022-12-07T03:26:34;14.98;;;7.15;;
29568;SDS011;16501;51.462;14.346;2022-12-07T03:29:05;14.73;;;7.63;;
29568;SDS011;16501;51.462;14.346;2022-12-07T03:31:39;14.75;;;7.20;;
29568;SDS011;16501;51.462;14.346;2022-12-07T03:34:17;12.38;;;6.57;;
29568;SDS011;16501;51.462;14.346;2022-12-07T03:36:50;14.90;;;7.13;;
29568;SDS011;16501;51.462;14.346;2022-12-07T03:42:27;14.63;;;7.10;;
29568;SDS011;16501;51.462;14.346;2022-12-07T03:44:52;14.00;;;7.38;;
29568;SDS011;16501;51.462;14.346;2022-12-07T03:50:11;14.40;;;7.00;;
29568;SDS011;16501;51.462;14.346;2022-12-07T03:53:03;15.02;;;6.85;;
29568;SDS011;16501;51.462;14.346;2022-12-07T03:55:34;16.08;;;7.78;;
29568;SDS011;16501;51.462;14.346;2022-12-07T03:58:04;19.15;;;8.48;;
29568;SDS011;16501;51.462;14.346;2022-12-07T04:00:32;17.80;;;8.10;;
29568;SDS011;16501;51.462;14.346;2022-12-07T04:02:58;18.75;;;8.38;;
29568;SDS011;16501;51.462;14.346;2022-12-07T04:05:24;18.63;;;8.80;;
29568;SDS011;16501;51.462;14.346;2022-12-07T04:07:50;16.55;;;8.95;;
29568;SDS011;16501;51.462;14.346;2022-12-07T04:10:16;18.50;;;8.38;;
29568;SDS011;16501;51.462;14.346;2022-12-07T04:12:42;17.83;;;8.85;;
29568;SDS011;16501;51.462;14.346;2022-12-07T04:15:08;17.88;;;8.93;;
29568;SDS011;16501;51.462;14.346;2022-12-07T04:17:34;19.55;;;9.55;;
29568;SDS011;16501;51.462;14.346;2022-12-07T04:19:59;20.00;;;9.75;;
29568;SDS011;16501;51.462;14.346;2022-12-07T04:22:24;23.90;;;10.25;;
29568;SDS011;16501;51.462;14.346;2022-12-07T04:24:50;19.90;;;10.05;;
29568;SDS011;16501;51.462;14.346;2022-12-07T04:27:16;21.30;;;10.15;;
29568;SDS011;16501;51.462;14.346;2022-12-07T04:29:41;21.30;;;10.85;;
29568;SDS011;16501;51.462;14.346;2022-12-07T04:32:08;21.15;;;10.57;;
29568;SDS011;16501;51.462;14.346;2022-12-07T04:34:34;23.17;;;11.35;;
29568;SDS011;16501;51.462;14.346;2022-12-07T04:37:00;23.08;;;10.68;;
29568;SDS011;16501;51.462;14.346;2022-12-07T04:39:27;21.42;;;11.18;;
29568;SDS011;16501;51.462;14.346;2022-12-07T04:41:54;24.95;;;11.48;;
29568;SDS011;16501;51.462;14.346;2022-12-07T04:44:21;22.27;;;10.45;;
29568;SDS011;16501;51.462;14.346;2022-12-07T04:46:48;26.42;;;11.48;;
29568;SDS011;16501;51.462;14.346;2022-12-07T04:49:15;23.13;;;11.05;;
29568;SDS011;16501;51.462;14.346;2022-12-07T04:51:41;21.60;;;11.40;;
29568;SDS011;16501;51.462;14.346;2022-12-07T04:54:06;26.17;;;13.10;;
29568;SDS011;16501;51.462;14.346;2022-12-07T04:56:32;29.27;;;14.05;;
29568;SDS011;16501;51.462;14.346;2022-12-07T04:58:59;27.08;;;13.38;;
29568;SDS011;16501;51.462;14.346;2022-12-07T05:01:24;34.63;;;15.43;;
29568;SDS011;16501;51.462;14.346;2022-12-07T05:03:51;32.38;;;15.90;;
29568;SDS011;16501;51.462;14.346;2022-12-07T05:06:17;23.85;;;12.75;;
29568;SDS011;16501;51.462;14.346;2022-12-07T05:08:43;22.60;;;12.23;;
29568;SDS011;16501;51.462;14.346;2022-12-07T05:11:09;23.23;;;11.98;;
29568;SDS011;16501;51.462;14.346;2022-12-07T05:13:55;37.38;;;21.63;;
29568;SDS011;16501;51.462;14.346;2022-12-07T05:16:20;36.97;;;20.20;;
29568;SDS011;16501;51.462;14.346;2022-12-07T05:18:46;61.90;;;37.58;;
29568;SDS011;16501;51.462;14.346;2022-12-07T05:21:13;51.17;;;29.50;;
29568;SDS011;16501;51.462;14.346;2022-12-07T05:23:38;46.00;;;26.88;;
29568;SDS011;16501;51.462;14.346;2022-12-07T05:26:03;26.90;;;15.95;;
29568;SDS011;16501;51.462;14.346;2022-12-07T05:28:29;23.85;;;12.07;;
29568;SDS011;16501;51.462;14.346;2022-12-07T05:30:54;24.30;;;11.57;;
29568;SDS011;16501;51.462;14.346;2022-12-07T05:33:19;20.73;;;10.43;;
29568;SDS011;16501;51.462;14.346;2022-12-07T05:35:46;20.40;;;11.27;;
29568;SDS011;16501;51.462;14.346;2022-12-07T05:38:12;27.20;;;13.02;;
29568;SDS011;16501;51.462;14.346;2022-12-07T05:40:37;26.90;;;11.27;;
29568;SDS011;16501;51.462;14.346;2022-12-07T05:43:03;22.52;;;11.55;;
29568;SDS011;16501;51.462;14.346;2022-12-07T05:45:28;23.45;;;11.38;;
29568;SDS011;16501;51.462;14.346;2022-12-07T05:47:56;19.80;;;11.13;;
29568;SDS011;16501;51.462;14.346;2022-12-07T05:50:21;25.52;;;13.00;;
29568;SDS011;16501;51.462;14.346;2022-12-07T05:52:48;26.13;;;12.95;;
29568;SDS011;16501;51.462;14.346;2022-12-07T05:55:15;21.70;;;11.65;;
29568;SDS011;16501;51.462;14.346;2022-12-07T05:57:41;20.65;;;10.40;;
29568;SDS011;16501;51.462;14.346;2022-12-07T06:00:26;22.25;;;11.52;;
29568;SDS011;16501;51.462;14.346;2022-12-07T06:02:52;23.55;;;11.48;;
29568;SDS011;16501;51.462;14.346;2022-12-07T06:05:17;22.67;;;11.48;;
29568;SDS011;16501;51.462;14.346;2022-12-07T06:07:42;31.55;;;14.60;;
29568;SDS011;16501;51.462;14.346;2022-12-07T06:10:08;23.55;;;12.30;;
29568;SDS011;16501;51.462;14.346;2022-12-07T06:12:34;19.23;;;10.98;;
29568;SDS011;16501;51.462;14.346;2022-12-07T06:15:02;21.08;;;10.55;;
29568;SDS011;16501;51.462;14.346;2022-12-07T06:17:27;18.92;;;10.40;;
29568;SDS011;16501;51.462;14.346;2022-12-07T06:19:53;21.23;;;11.10;;
29568;SDS011;16501;51.462;14.346;2022-12-07T06:22:19;21.33;;;10.98;;
29568;SDS011;16501;51.462;14.346;2022-12-07T06:24:44;18.65;;;10.27;;
29568;SDS011;16501;51.462;14.346;2022-12-07T06:27:10;22.65;;;10.75;;
29568;SDS011;16501;51.462;14.346;2022-12-07T06:29:35;19.63;;;10.50;;
29568;SDS011;16501;51.462;14.346;2022-12-07T06:32:01;17.55;;;9.77;;
29568;SDS011;16501;51.462;14.346;2022-12-07T06:34:27;20.13;;;10.13;;
29568;SDS011;16501;51.462;14.346;2022-12-07T06:36:52;19.90;;;10.27;;
29568;SDS011;16501;51.462;14.346;2022-12-07T06:39:26;20.58;;;9.98;;
29568;SDS011;16501;51.462;14.346;2022-12-07T06:41:53;18.95;;;9.85;;
29568;SDS011;16501;51.462;14.346;2022-12-07T06:44:19;18.00;;;9.85;;
29568;SDS011;16501;51.462;14.346;2022-12-07T06:46:46;17.65;;;9.68;;
29568;SDS011;16501;51.462;14.346;2022-12-07T06:49:12;17.38;;;9.30;;
29568;SDS011;16501;51.462;14.346;2022-12-07T06:51:39;17.48;;;9.23;;
29568;SDS011;16501;51.462;14.346;2022-12-07T06:54:08;21.83;;;10.23;;
29568;SDS011;16501;51.462;14.346;2022-12-07T06:56:38;19.50;;;9.20;;
29568;SDS011;16501;51.462;14.346;2022-12-07T06:59:04;21.73;;;9.77;;
29568;SDS011;16501;51.462;14.346;2022-12-07T07:01:31;15.60;;;8.68;;
29568;SDS011;16501;51.462;14.346;2022-12-07T07:03:59;18.73;;;8.73;;
29568;SDS011;16501;51.462;14.346;2022-12-07T07:06:24;16.77;;;8.52;;
29568;SDS011;16501;51.462;14.346;2022-12-07T07:08:50;16.60;;;8.55;;
29568;SDS011;16501;51.462;14.346;2022-12-07T07:11:15;17.52;;;9.30;;
29568;SDS011;16501;51.462;14.346;2022-12-07T07:13:40;16.95;;;9.18;;
29568;SDS011;16501;51.462;14.346;2022-12-07T07:16:06;17.98;;;8.13;;
29568;SDS011;16501;51.462;14.346;2022-12-07T07:18:32;17.20;;;8.43;;
29568;SDS011;16501;51.462;14.346;2022-12-07T07:20:58;16.98;;;9.18;;
29568;SDS011;16501;51.462;14.346;2022-12-07T07:23:23;17.70;;;8.73;;
29568;SDS011;16501;51.462;14.346;2022-12-07T07:25:49;14.95;;;8.82;;
29568;SDS011;16501;51.462;14.346;2022-12-07T07:28:14;22.10;;;10.52;;
29568;SDS011;16501;51.462;14.346;2022-12-07T07:30:42;38.42;;;16.10;;
29568;SDS011;16501;51.462;14.346;2022-12-07T07:33:07;50.00;;;22.65;;
29568;SDS011;16501;51.462;14.346;2022-12-07T07:35:35;55.55;;;25.15;;
29568;SDS011;16501;51.462;14.346;2022-12-07T07:38:00;28.08;;;15.80;;
29568;SDS011;16501;51.462;14.346;2022-12-07T07:40:27;31.50;;;14.25;;
29568;SDS011;16501;51.462;14.346;2022-12-07T07:42:56;24.55;;;10.77;;
29568;SDS011;16501;51.462;14.346;2022-12-07T07:45:23;19.80;;;9.73;;
29568;SDS011;16501;51.462;14.346;2022-12-07T07:47:50;14.27;;;7.95;;
29568;SDS011;16501;51.462;14.346;2022-12-07T07:50:16;17.88;;;9.07;;
29568;SDS011;16501;51.462;14.346;2022-12-07T07:52:43;13.55;;;6.68;;
29568;SDS011;16501;51.462;14.346;2022-12-07T07:55:09;14.68;;;8.73;;
29568;SDS011;16501;51.462;14.346;2022-12-07T07:57:35;24.17;;;13.27;;
29568;SDS011;16501;51.462;14.346;2022-12-07T08:00:05;24.58;;;13.23;;
29568;SDS011;16501;51.462;14.346;2022-12-07T08:02:33;22.45;;;9.40;;
29568;SDS011;16501;51.462;14.346;2022-12-07T08:04:58;16.02;;;7.32;;
29568;SDS011;16501;51.462;14.346;2022-12-07T08:07:24;15.35;;;7.65;;
29568;SDS011;16501;51.462;14.346;2022-12-07T08:09:50;12.70;;;6.95;;
29568;SDS011;16501;51.462;14.346;2022-12-07T08:12:15;14.80;;;8.20;;
29568;SDS011;16501;51.462;14.346;2022-12-07T08:14:41;14.20;;;7.80;;
29568;SDS011;16501;51.462;14.346;2022-12-07T08:17:07;16.35;;;7.88;;
29568;SDS011;16501;51.462;14.346;2022-12-07T08:19:33;12.00;;;7.10;;
29568;SDS011;16501;51.462;14.346;2022-12-07T08:21:59;11.82;;;7.25;;
29568;SDS011;16501;51.462;14.346;2022-12-07T08:24:25;12.73;;;7.38;;
29568;SDS011;16501;51.462;14.346;2022-12-07T08:26:50;12.75;;;6.72;;
29568;SDS011;16501;51.462;14.346;2022-12-07T08:29:17;14.07;;;7.68;;
29568;SDS011;16501;51.462;14.346;2022-12-07T08:31:44;11.60;;;6.90;;
29568;SDS011;16501;51.462;14.346;2022-12-07T08:34:10;11.27;;;7.43;;
29568;SDS011;16501;51.462;14.346;2022-12-07T08:36:37;13.73;;;7.30;;
29568;SDS011;16501;51.462;14.346;2022-12-07T08:39:03;11.48;;;6.68;;
29568;SDS011;16501;51.462;14.346;2022-12-07T08:41:29;13.02;;;6.88;;
29568;SDS011;16501;51.462;14.346;2022-12-07T08:43:55;15.13;;;7.07;;
29568;SDS011;16501;51.462;14.346;2022-12-07T08:46:40;13.20;;;7.40;;
29568;SDS011;16501;51.462;14.346;2022-12-07T08:49:22;10.38;;;6.72;;
29568;SDS011;16501;51.462;14.346;2022-12-07T08:51:53;12.63;;;7.00;;
29568;SDS011;16501;51.462;14.346;2022-12-07T08:54:21;18.23;;;8.55;;
29568;SDS011;16501;51.462;14.346;2022-12-07T08:56:47;24.02;;;12.65;;
29568;SDS011;16501;51.462;14.346;2022-12-07T08:59:15;15.18;;;9.27;;
29568;SDS011;16501;51.462;14.346;2022-12-07T09:01:44;17.00;;;9.75;;
29568;SDS011;16501;51.462;14.346;2022-12-07T09:04:09;14.63;;;8.45;;
29568;SDS011;16501;51.462;14.346;2022-12-07T09:06:36;16.38;;;8.13;;
29568;SDS011;16501;51.462;14.346;2022-12-07T09:09:02;15.27;;;9.00;;
29568;SDS011;16501;51.462;14.346;2022-12-07T09:11:29;16.10;;;8.75;;
29568;SDS011;16501;51.462;14.346;2022-12-07T09:13:54;14.35;;;8.10;;
29568;SDS011;16501;51.462;14.346;2022-12-07T09:16:21;12.40;;;7.70;;
29568;SDS011;16501;51.462;14.346;2022-12-07T09:18:47;14.80;;;9.07;;
29568;SDS011;16501;51.462;14.346;2022-12-07T09:21:14;21.13;;;9.05;;
29568;SDS011;16501;51.462;14.346;2022-12-07T09:23:40;14.27;;;8.25;;
29568;SDS011;16501;51.462;14.346;2022-12-07T09:26:07;14.15;;;7.60;;
29568;SDS011;16501;51.462;14.346;2022-12-07T09:28:32;11.07;;;6.50;;
29568;SDS011;16501;51.462;14.346;2022-12-07T09:30:59;15.98;;;7.63;;
29568;SDS011;16501;51.462;14.346;2022-12-07T09:33:25;11.90;;;7.07;;
29568;SDS011;16501;51.462;14.346;2022-12-07T09:35:51;13.00;;;7.40;;
29568;SDS011;16501;51.462;14.346;2022-12-07T09:38:18;15.75;;;7.70;;
29568;SDS011;16501;51.462;14.346;2022-12-07T09:40:45;12.38;;;7.32;;
29568;SDS011;16501;51.462;14.346;2022-12-07T09:43:18;16.15;;;7.70;;
29568;SDS011;16501;51.462;14.346;2022-12-07T09:45:46;13.55;;;7.55;;
29568;SDS011;16501;51.462;14.346;2022-12-07T09:48:18;11.55;;;6.68;;
29568;SDS011;16501;51.462;14.346;2022-12-07T09:50:54;11.35;;;7.57;;
29568;SDS011;16501;51.462;14.346;2022-12-07T09:53:24;23.10;;;11.57;;
29568;SDS011;16501;51.462;14.346;2022-12-07T09:55:52;17.33;;;8.13;;
29568;SDS011;16501;51.462;14.346;2022-12-07T09:58:20;20.90;;;8.10;;
29568;SDS011;16501;51.462;14.346;2022-12-07T10:01:00;18.42;;;7.03;;
29568;SDS011;16501;51.462;14.346;2022-12-07T10:03:49;11.23;;;7.10;;
29568;SDS011;16501;51.462;14.346;2022-12-07T10:06:19;12.70;;;6.88;;
29568;SDS011;16501;51.462;14.346;2022-12-07T10:08:45;13.68;;;7.88;;
29568;SDS011;16501;51.462;14.346;2022-12-07T10:11:12;14.88;;;9.52;;
29568;SDS011;16501;51.462;14.346;2022-12-07T10:18:49;13.38;;;8.20;;
29568;SDS011;16501;51.462;14.346;2022-12-07T10:26:36;15.55;;;7.25;;
29568;SDS011;16501;51.462;14.346;2022-12-07T10:31:38;12.00;;;6.78;;
29568;SDS011;16501;51.462;14.346;2022-12-07T10:34:12;13.55;;;7.35;;
29568;SDS011;16501;51.462;14.346;2022-12-07T10:36:46;13.90;;;7.07;;
29568;SDS011;16501;51.462;14.346;2022-12-07T10:39:18;12.18;;;6.60;;
29568;SDS011;16501;51.462;14.346;2022-12-07T10:41:57;11.40;;;6.90;;
29568;SDS011;16501;51.462;14.346;2022-12-07T10:44:28;11.60;;;6.80;;
29568;SDS011;16501;51.462;14.346;2022-12-07T10:49:46;10.18;;;5.88;;
29568;SDS011;16501;51.462;14.346;2022-12-07T10:53:41;13.10;;;6.28;;
29568;SDS011;16501;51.462;14.346;2022-12-07T11:09:44;12.60;;;6.90;;
29568;SDS011;16501;51.462;14.346;2022-12-07T11:18:14;10.93;;;5.70;;
29568;SDS011;16501;51.462;14.346;2022-12-07T11:20:52;13.50;;;5.55;;
29568;SDS011;16501;51.462;14.346;2022-12-07T11:23:30;13.05;;;6.10;;
29568;SDS011;16501;51.462;14.346;2022-12-07T11:26:13;9.13;;;5.00;;
29568;SDS011;16501;51.462;14.346;2022-12-07T11:31:57;11.52;;;4.97;;
29568;SDS011;16501;51.462;14.346;2022-12-07T11:37:33;9.77;;;5.53;;
29568;SDS011;16501;51.462;14.346;2022-12-07T11:40:03;8.18;;;4.75;;
29568;SDS011;16501;51.462;14.346;2022-12-07T11:42:33;9.70;;;4.82;;
29568;SDS011;16501;51.462;14.346;2022-12-07T11:45:17;8.98;;;4.80;;
29568;SDS011;16501;51.462;14.346;2022-12-07T11:47:50;7.40;;;5.00;;
29568;SDS011;16501;51.462;14.346;2022-12-07T11:53:01;7.50;;;4.35;;
29568;SDS011;16501;51.462;14.346;2022-12-07T12:06:47;6.70;;;3.97;;
29568;SDS011;16501;51.462;14.346;2022-12-07T12:22:53;6.80;;;3.75;;
29568;SDS011;16501;51.462;14.346;2022-12-07T12:25:41;7.65;;;4.13;;
29568;SDS011;16501;51.462;14.346;2022-12-07T12:28:24;7.13;;;3.78;;
29568;SDS011;16501;51.462;14.346;2022-12-07T12:33:30;7.65;;;3.60;;
29568;SDS011;16501;51.462;14.346;2022-12-07T12:36:17;8.88;;;3.75;;
29568;SDS011;16501;51.462;14.346;2022-12-07T12:47:01;6.15;;;3.38;;
29568;SDS011;16501;51.462;14.346;2022-12-07T12:58:48;6.40;;;2.85;;
29568;SDS011;16501;51.462;14.346;2022-12-07T13:03:55;35.20;;;15.82;;
29568;SDS011;16501;51.462;14.346;2022-12-07T13:08:51;13.88;;;6.90;;
29568;SDS011;16501;51.462;14.346;2022-12-07T13:11:24;7.30;;;3.92;;
29568;SDS011;16501;51.462;14.346;2022-12-07T13:14:40;5.03;;;3.28;;
29568;SDS011;16501;51.462;14.346;2022-12-07T13:17:07;8.90;;;5.05;;
29568;SDS011;16501;51.462;14.346;2022-12-07T13:22:49;6.88;;;5.22;;
29568;SDS011;16501;51.462;14.346;2022-12-07T13:24:56;5.50;;;3.35;;
29568;SDS011;16501;51.462;14.346;2022-12-07T13:27:22;4.70;;;2.70;;
29568;SDS011;16501;51.462;14.346;2022-12-07T13:29:52;7.10;;;2.63;;
29568;SDS011;16501;51.462;14.346;2022-12-07T13:32:25;7.10;;;3.75;;
29568;SDS011;16501;51.462;14.346;2022-12-07T13:34:53;6.00;;;3.13;;
29568;SDS011;16501;51.462;14.346;2022-12-07T13:42:28;6.60;;;3.20;;
29568;SDS011;16501;51.462;14.346;2022-12-07T13:44:56;10.02;;;3.50;;
29568;SDS011;16501;51.462;14.346;2022-12-07T13:50:01;4.45;;;2.25;;
29568;SDS011;16501;51.462;14.346;2022-12-07T13:52:47;3.35;;;2.13;;
29568;SDS011;16501;51.462;14.346;2022-12-07T13:55:14;2.90;;;1.85;;
29568;SDS011;16501;51.462;14.346;2022-12-07T13:57:42;5.10;;;2.47;;
29568;SDS011;16501;51.462;14.346;2022-12-07T14:00:20;7.15;;;3.08;;
29568;SDS011;16501;51.462;14.346;2022-12-07T14:05:23;16.67;;;6.03;;
29568;SDS011;16501;51.462;14.346;2022-12-07T14:11:04;10.02;;;3.35;;
29568;SDS011;16501;51.462;14.346;2022-12-07T14:13:33;5.72;;;2.53;;
29568;SDS011;16501;51.462;14.346;2022-12-07T14:18:50;8.68;;;3.05;;
29568;SDS011;16501;51.462;14.346;2022-12-07T14:21:17;10.32;;;5.00;;
29568;SDS011;16501;51.462;14.346;2022-12-07T14:24:09;15.25;;;7.35;;
29568;SDS011;16501;51.462;14.346;2022-12-07T14:26:39;38.28;;;15.80;;
29568;SDS011;16501;51.462;14.346;2022-12-07T14:31:49;15.00;;;8.00;;
29568;SDS011;16501;51.462;14.346;2022-12-07T14:34:16;18.00;;;8.60;;
29568;SDS011;16501;51.462;14.346;2022-12-07T14:36:41;31.90;;;11.80;;
29568;SDS011;16501;51.462;14.346;2022-12-07T14:39:06;22.92;;;9.85;;
29568;SDS011;16501;51.462;14.346;2022-12-07T14:41:32;28.13;;;11.68;;
29568;SDS011;16501;51.462;14.346;2022-12-07T14:44:16;8.63;;;6.03;;
29568;SDS011;16501;51.462;14.346;2022-12-07T14:46:42;8.60;;;5.15;;
29568;SDS011;16501;51.462;14.346;2022-12-07T14:49:07;10.32;;;6.82;;
29568;SDS011;16501;51.462;14.346;2022-12-07T14:51:35;7.60;;;6.70;;
29568;SDS011;16501;51.462;14.346;2022-12-07T14:54:05;13.27;;;7.93;;
29568;SDS011;16501;51.462;14.346;2022-12-07T14:56:38;12.02;;;6.03;;
29568;SDS011;16501;51.462;14.346;2022-12-07T14:59:03;14.70;;;6.93;;
29568;SDS011;16501;51.462;14.346;2022-12-07T15:01:29;8.02;;;5.07;;
29568;SDS011;16501;51.462;14.346;2022-12-07T15:03:54;9.27;;;5.07;;
29568;SDS011;16501;51.462;14.346;2022-12-07T15:06:20;8.90;;;5.20;;
29568;SDS011;16501;51.462;14.346;2022-12-07T15:08:46;12.35;;;6.65;;
29568;SDS011;16501;51.462;14.346;2022-12-07T15:11:14;9.38;;;3.95;;
29568;SDS011;16501;51.462;14.346;2022-12-07T15:13:41;9.25;;;4.97;;
29568;SDS011;16501;51.462;14.346;2022-12-07T15:16:25;9.02;;;4.80;;
29568;SDS011;16501;51.462;14.346;2022-12-07T15:18:51;10.13;;;5.28;;
29568;SDS011;16501;51.462;14.346;2022-12-07T15:21:16;7.18;;;4.78;;
29568;SDS011;16501;51.462;14.346;2022-12-07T15:23:41;8.15;;;4.80;;
29568;SDS011;16501;51.462;14.346;2022-12-07T15:26:07;12.82;;;6.22;;
29568;SDS011;16501;51.462;14.346;2022-12-07T15:28:34;10.90;;;6.75;;
29568;SDS011;16501;51.462;14.346;2022-12-07T15:31:01;11.75;;;6.93;;
29568;SDS011;16501;51.462;14.346;2022-12-07T15:33:27;15.18;;;6.90;;
29568;SDS011;16501;51.462;14.346;2022-12-07T15:35:52;11.48;;;5.50;;
29568;SDS011;16501;51.462;14.346;2022-12-07T15:38:17;9.68;;;4.85;;
29568;SDS011;16501;51.462;14.346;2022-12-07T15:40:47;7.93;;;5.40;;
29568;SDS011;16501;51.462;14.346;2022-12-07T15:43:13;16.63;;;6.13;;
29568;SDS011;16501;51.462;14.346;2022-12-07T15:45:56;10.68;;;6.22;;
29568;SDS011;16501;51.462;14.346;2022-12-07T15:48:22;14.02;;;7.47;;
29568;SDS011;16501;51.462;14.346;2022-12-07T15:50:48;10.93;;;7.05;;
29568;SDS011;16501;51.462;14.346;2022-12-07T15:53:13;11.27;;;6.68;;
29568;SDS011;16501;51.462;14.346;2022-12-07T15:55:39;11.43;;;7.10;;
29568;SDS011;16501;51.462;14.346;2022-12-07T15:58:06;12.93;;;6.97;;
29568;SDS011;16501;51.462;14.346;2022-12-07T16:00:31;12.80;;;6.55;;
29568;SDS011;16501;51.462;14.346;2022-12-07T16:02:58;15.57;;;8.82;;
29568;SDS011;16501;51.462;14.346;2022-12-07T16:05:25;16.88;;;9.93;;
29568;SDS011;16501;51.462;14.346;2022-12-07T16:07:50;12.30;;;7.60;;
29568;SDS011;16501;51.462;14.346;2022-12-07T16:10:15;17.92;;;7.75;;
29568;SDS011;16501;51.462;14.346;2022-12-07T16:12:41;11.30;;;6.82;;
29568;SDS011;16501;51.462;14.346;2022-12-07T16:15:07;37.28;;;18.52;;
29568;SDS011;16501;51.462;14.346;2022-12-07T16:17:34;69.47;;;34.55;;
29568;SDS011;16501;51.462;14.346;2022-12-07T16:20:00;46.30;;;22.40;;
29568;SDS011;16501;51.462;14.346;2022-12-07T16:22:25;37.22;;;17.63;;
29568;SDS011;16501;51.462;14.346;2022-12-07T16:24:50;28.08;;;14.80;;
29568;SDS011;16501;51.462;14.346;2022-12-07T16:27:16;25.73;;;13.35;;
29568;SDS011;16501;51.462;14.346;2022-12-07T16:29:43;38.20;;;18.63;;
29568;SDS011;16501;51.462;14.346;2022-12-07T16:32:08;21.42;;;13.40;;
29568;SDS011;16501;51.462;14.346;2022-12-07T16:34:33;14.30;;;8.00;;
29568;SDS011;16501;51.462;14.346;2022-12-07T16:36:59;12.93;;;6.45;;
29568;SDS011;16501;51.462;14.346;2022-12-07T16:39:24;10.80;;;5.90;;
29568;SDS011;16501;51.462;14.346;2022-12-07T16:41:50;12.35;;;6.70;;
29568;SDS011;16501;51.462;14.346;2022-12-07T16:44:15;10.32;;;6.32;;
29568;SDS011;16501;51.462;14.346;2022-12-07T16:46:42;10.50;;;5.97;;
29568;SDS011;16501;51.462;14.346;2022-12-07T16:49:11;21.50;;;9.65;;
29568;SDS011;16501;51.462;14.346;2022-12-07T16:51:40;15.32;;;7.45;;
29568;SDS011;16501;51.462;14.346;2022-12-07T16:54:09;32.30;;;13.00;;
29568;SDS011;16501;51.462;14.346;2022-12-07T16:56:35;25.58;;;10.07;;
29568;SDS011;16501;51.462;14.346;2022-12-07T16:59:00;23.00;;;9.10;;
29568;SDS011;16501;51.462;14.346;2022-12-07T17:01:28;13.77;;;8.02;;
29568;SDS011;16501;51.462;14.346;2022-12-07T17:03:54;13.95;;;5.82;;